Time;durP1;ratioP1;P1;durP2;ratioP2;P2;SDS_P1;SDS_P2;PMS_P1;PMS_P2;Temp;Humidity;BMP_temperature;BMP_pressure;BME280_temperature;BME280_humidity;BME280_pressure;Samples;Min_cycle;Max_cycle;Signal;HPM_P1;HPM_P2
2022/02/10 00:04:17;;;;;;;36.83;18.83;;;1.80;99.90;;;;;;5108475;28;20054;-68
2022/02/10 00:07:03;;;;;;;36.63;19.33;;;1.80;99.90;;;;;;5108545;28;20573;-68
2022/02/10 00:18:07;;;;;;;37.15;19.17;;;1.70;99.90;;;;;;5108541;28;20058;-68
2022/02/10 00:20:40;;;;;;;36.47;18.70;;;1.60;99.90;;;;;;5108679;28;20074;-68
2022/02/10 00:23:24;;;;;;;38.93;20.30;;;1.70;99.90;;;;;;5108313;28;20051;-68
2022/02/10 00:34:16;;;;;;;40.40;20.07;;;1.70;99.90;;;;;;5107006;28;20137;-68
2022/02/10 00:36:53;;;;;;;37.37;19.60;;;1.60;99.90;;;;;;5094148;28;20052;-68
2022/02/10 00:39:57;;;;;;;39.77;20.17;;;1.60;99.90;;;;;;5094424;28;20056;-68
2022/02/10 00:42:24;;;;;;;39.57;19.27;;;1.60;99.90;;;;;;5094533;28;20579;-68
2022/02/10 00:44:51;;;;;;;39.40;19.77;;;1.60;99.90;;;;;;5094136;28;20059;-68
2022/02/10 00:47:20;;;;;;;36.73;19.40;;;1.70;99.90;;;;;;5094314;28;20465;-68
2022/02/10 00:49:47;;;;;;;43.37;20.73;;;1.60;99.90;;;;;;5094163;28;20055;-68
2022/02/10 00:52:15;;;;;;;39.63;19.50;;;1.50;99.90;;;;;;5094772;28;20064;-68
2022/02/10 00:54:41;;;;;;;41.53;21.23;;;1.50;99.90;;;;;;5094304;28;20097;-67
2022/02/10 00:57:09;;;;;;;39.87;20.37;;;1.50;99.90;;;;;;5094235;28;20048;-68
2022/02/10 00:59:48;;;;;;;40.67;19.27;;;1.60;99.90;;;;;;5094465;28;20058;-68
2022/02/10 01:06:58;;;;;;;40.87;20.47;;;1.50;99.90;;;;;;5094012;28;20416;-68
2022/02/10 01:11:04;;;;;;;36.70;17.70;;;1.80;99.90;;;;;;5094070;28;20116;-67
2022/02/10 01:13:47;;;;;;;34.03;17.43;;;2.00;99.90;;;;;;5094021;28;20139;-68
2022/02/10 01:24:33;;;;;;;35.60;16.87;;;2.90;99.90;;;;;;5093532;28;20311;-68
2022/02/10 01:29:46;;;;;;;33.97;16.43;;;2.60;99.90;;;;;;5093628;28;20113;-68
2022/02/10 01:32:15;;;;;;;32.60;16.37;;;2.40;99.90;;;;;;5093488;28;20142;-68
2022/02/10 01:34:46;;;;;;;30.17;15.87;;;2.30;99.90;;;;;;5093162;28;20073;-68
2022/02/10 01:37:15;;;;;;;29.73;15.30;;;2.30;99.90;;;;;;5093451;28;20047;-68
2022/02/10 01:39:50;;;;;;;33.10;16.13;;;2.40;99.90;;;;;;5093220;28;20478;-68
2022/02/10 01:42:57;;;;;;;34.73;16.20;;;2.30;99.90;;;;;;5093491;28;20060;-68
2022/02/10 02:04:49;;;;;;;35.23;16.80;;;1.70;99.90;;;;;;5092318;28;20105;-68
2022/02/10 02:07:16;;;;;;;31.37;16.10;;;1.70;99.90;;;;;;5092800;28;20052;-67
2022/02/10 02:09:44;;;;;;;29.57;16.17;;;1.80;99.90;;;;;;5092921;28;20126;-68
2022/02/10 02:12:11;;;;;;;31.20;15.43;;;1.70;99.90;;;;;;5092755;28;20138;-68
2022/02/10 02:14:38;;;;;;;39.33;16.53;;;1.70;99.90;;;;;;5092818;28;20135;-68
2022/02/10 02:17:07;;;;;;;34.47;16.33;;;1.60;99.90;;;;;;5092470;28;20130;-68
2022/02/10 02:19:34;;;;;;;33.80;15.70;;;1.50;99.90;;;;;;5092607;28;20475;-68
2022/02/10 02:22:05;;;;;;;32.57;17.23;;;1.50;99.90;;;;;;5092837;28;20055;-68
2022/02/10 02:24:32;;;;;;;34.83;16.90;;;1.40;99.90;;;;;;5092329;28;20142;-68
2022/02/10 02:27:02;;;;;;;38.27;17.80;;;1.40;99.90;;;;;;5092345;28;20485;-68
2022/02/10 02:29:34;;;;;;;36.93;16.97;;;1.30;99.90;;;;;;5092483;28;20117;-68
2022/02/10 02:32:06;;;;;;;36.37;16.67;;;1.30;99.90;;;;;;5092420;28;20104;-67
2022/02/10 02:37:49;;;;;;;35.43;17.10;;;1.30;99.90;;;;;;5092416;28;20166;-68
2022/02/10 03:05:17;;;;;;;34.47;17.83;;;1.70;99.90;;;;;;5091673;28;20424;-67
2022/02/10 03:07:47;;;;;;;40.57;17.77;;;1.70;99.90;;;;;;5091821;28;20571;-68
2022/02/10 03:13:13;;;;;;;30.90;16.07;;;1.20;99.90;;;;;;5066773;28;20043;-67
2022/02/10 03:15:51;;;;;;;38.03;17.50;;;1.10;99.90;;;;;;5091747;28;20056;-67
2022/02/10 03:18:26;;;;;;;36.33;18.87;;;1.20;99.90;;;;;;5092111;28;20151;-67
2022/02/10 04:05:21;;;;;;;35.03;16.20;;;1.20;99.90;;;;;;5028421;28;20041;-67
2022/02/10 04:07:57;;;;;;;36.57;16.00;;;1.20;99.90;;;;;;5029020;28;20061;-67
2022/02/10 04:10:47;;;;;;;33.10;15.60;;;1.20;99.90;;;;;;5071975;28;20055;-69
2022/02/10 04:13:22;;;;;;;30.37;15.40;;;1.30;99.90;;;;;;5095188;28;20052;-68
2022/02/10 04:15:57;;;;;;;32.97;15.23;;;1.30;99.90;;;;;;5094946;28;20087;-69
2022/02/10 04:19:12;;;;;;;28.53;16.00;;;1.30;99.90;;;;;;5094996;28;20056;-69
2022/02/10 04:21:45;;;;;;;34.00;15.47;;;1.30;99.90;;;;;;5094737;28;20052;-69
2022/02/10 04:24:35;;;;;;;34.83;15.17;;;1.30;99.90;;;;;;5095102;28;20051;-69
2022/02/10 04:27:09;;;;;;;34.77;16.03;;;1.30;99.90;;;;;;5094777;28;20397;-69
2022/02/10 04:30:02;;;;;;;31.10;16.30;;;1.30;99.90;;;;;;5095018;28;20048;-69
2022/02/10 04:37:17;;;;;;;34.97;16.07;;;1.30;99.90;;;;;;5094901;28;20101;-69
2022/02/10 04:44:20;;;;;;;29.83;15.13;;;1.10;99.90;;;;;;5031843;28;20037;-69
2022/02/10 04:57:54;;;;;;;28.57;14.67;;;1.00;99.90;;;;;;5091313;28;20044;-69
2022/02/10 05:00:39;;;;;;;28.07;14.67;;;1.00;99.90;;;;;;5094700;28;20056;-69
2022/02/10 05:36:09;;;;;;;31.20;14.00;;;1.40;99.90;;;;;;5087965;28;20055;-69
2022/02/10 05:38:44;;;;;;;28.80;14.20;;;1.30;99.90;;;;;;5094150;28;20055;-69
2022/02/10 05:41:48;;;;;;;29.67;14.13;;;1.20;99.90;;;;;;5094059;28;20056;-69
2022/02/10 05:47:20;;;;;;;25.93;12.53;;;1.00;99.90;;;;;;5093639;28;20048;-69
2022/02/10 05:55:51;;;;;;;30.13;13.90;;;0.90;99.90;;;;;;5030295;28;20037;-69
2022/02/10 05:58:25;;;;;;;29.03;14.10;;;0.90;99.90;;;;;;5088302;28;20052;-69
2022/02/10 06:53:25;;;;;;;25.43;13.03;;;1.00;99.90;;;;;;5092454;28;20055;-68
2022/02/10 07:04:36;;;;;;;28.27;13.17;;;1.20;99.90;;;;;;5089589;28;20137;-68
2022/02/10 07:13:09;;;;;;;33.23;14.13;;;1.30;99.90;;;;;;5146576;27;20383;-69
2022/02/10 07:49:30;;;;;;;27.13;14.20;;;1.90;99.90;;;;;;5129285;28;20503;-69
2022/02/10 07:52:23;;;;;;;29.40;14.73;;;2.00;99.90;;;;;;5129803;28;20052;-69
2022/02/10 07:55:14;;;;;;;26.23;13.23;;;2.00;99.90;;;;;;5128617;28;20051;-68
2022/02/10 07:57:47;;;;;;;22.53;13.27;;;2.10;99.90;;;;;;5129541;28;20051;-69
2022/02/10 08:00:52;;;;;;;25.97;14.30;;;2.20;99.90;;;;;;5129172;28;20491;-68
2022/02/10 08:50:22;;;;;;;12.07;6.97;;;4.20;99.90;;;;;;5051683;28;20076;-69
2022/02/10 08:53:49;;;;;;;12.67;6.47;;;4.10;99.90;;;;;;5093007;28;20059;-69
2022/02/10 08:56:02;;;;;;;13.93;7.32;;;4.00;99.90;;;;;;5113856;28;20047;-69
2022/02/10 08:58:57;;;;;;;13.03;7.70;;;4.10;99.90;;;;;;5114567;28;20055;-69
2022/02/10 09:01:53;;;;;;;13.43;6.90;;;4.10;99.90;;;;;;5114931;28;20055;-69
2022/02/10 09:04:26;;;;;;;12.93;6.90;;;6.40;99.90;;;;;;5114441;28;20124;-69
2022/02/10 09:10:30;;;;;;;13.25;7.05;;;11.10;99.90;;;;;;5055913;28;20401;-69
2022/02/10 09:16:10;;;;;;;13.05;6.18;;;5.90;99.90;;;;;;5108219;28;20043;-69
2022/02/10 09:22:05;;;;;;;13.82;6.95;;;5.40;99.90;;;;;;5113879;28;20120;-69
2022/02/10 10:00:27;;;;;;;12.25;6.00;;;5.90;99.90;;;;;;5113716;28;20055;-69
2022/02/10 10:03:09;;;;;;;14.80;5.85;;;6.00;99.90;;;;;;5113042;28;20048;-69
2022/02/10 10:05:41;;;;;;;12.40;5.05;;;6.20;99.90;;;;;;5112844;28;20453;-69
2022/02/10 10:08:30;;;;;;;15.63;5.50;;;6.20;99.90;;;;;;5113354;28;20059;-69
2022/02/10 10:11:40;;;;;;;13.13;6.10;;;6.40;99.90;;;;;;5112548;28;20052;-69
2022/02/10 10:14:16;;;;;;;11.15;5.60;;;6.80;99.90;;;;;;5112629;28;20113;-69
2022/02/10 10:19:47;;;;;;;12.50;5.57;;;6.90;99.90;;;;;;5112044;28;20047;-69
2022/02/10 10:22:26;;;;;;;13.10;5.85;;;7.10;99.90;;;;;;5112576;28;20487;-69
2022/02/10 10:44:15;;;;;;;12.52;6.25;;;7.00;99.90;;;;;;5109634;28;20093;-69
2022/02/10 10:50:55;;;;;;;12.68;5.13;;;7.70;99.90;;;;;;5109575;28;20487;-69
2022/02/10 10:53:25;;;;;;;11.18;5.05;;;7.70;99.90;;;;;;5112479;28;20051;-69
2022/02/10 10:56:00;;;;;;;15.60;5.47;;;7.80;99.90;;;;;;5112235;28;20150;-69
2022/02/10 10:58:36;;;;;;;14.10;4.00;;;7.90;99.90;;;;;;5112241;28;20503;-69
2022/02/10 11:38:07;;;;;;;10.48;3.70;;;8.50;99.90;;;;;;5111686;28;20082;-68
2022/02/10 11:41:24;;;;;;;11.55;4.15;;;8.60;99.90;;;;;;5111658;28;20051;-68
2022/02/10 11:44:22;;;;;;;12.05;4.72;;;8.70;99.90;;;;;;5111376;28;20131;-68
2022/02/10 11:47:38;;;;;;;14.18;5.07;;;8.90;99.90;;;;;;5111624;28;20052;-68
2022/02/10 12:30:23;;;;;;;10.82;4.88;;;9.10;99.90;;;;;;5114842;28;20108;-69
2022/02/10 14:13:22;;;;;;;12.98;4.65;;;7.90;99.90;;;;;;5112565;28;20059;-69
2022/02/10 14:18:33;;;;;;;11.93;4.93;;;7.90;99.90;;;;;;5101585;28;20495;-69
2022/02/10 14:21:14;;;;;;;12.70;4.75;;;7.90;99.90;;;;;;5112103;28;20052;-69
2022/02/10 14:29:07;;;;;;;13.52;4.47;;;7.90;99.90;;;;;;5110389;28;20074;-69
2022/02/10 14:31:34;;;;;;;10.60;4.50;;;7.90;99.90;;;;;;5112378;28;20130;-69
2022/02/10 14:34:02;;;;;;;12.55;4.95;;;7.90;99.90;;;;;;5113184;28;20052;-69
2022/02/10 14:36:34;;;;;;;11.35;4.93;;;8.00;99.90;;;;;;5112361;28;20499;-69
2022/02/10 14:39:15;;;;;;;10.23;4.18;;;7.90;99.90;;;;;;5112877;28;20113;-69
2022/02/10 14:42:12;;;;;;;11.60;4.32;;;8.00;99.90;;;;;;5112607;28;20044;-69
2022/02/10 16:18:42;;;;;;;9.43;3.70;;;7.50;99.90;;;;;;5088650;28;20043;-69
2022/02/10 16:21:10;;;;;;;7.47;3.78;;;7.50;99.90;;;;;;5114948;28;20087;-69
2022/02/10 16:23:37;;;;;;;8.77;3.40;;;7.50;99.90;;;;;;5114761;28;20475;-69
2022/02/10 16:26:14;;;;;;;9.77;3.53;;;7.50;99.90;;;;;;5115017;28;20090;-69
2022/02/10 16:28:42;;;;;;;6.78;3.30;;;7.50;99.90;;;;;;5114873;28;20047;-69
2022/02/10 16:31:11;;;;;;;8.00;2.97;;;7.40;99.90;;;;;;5114934;28;20063;-69
2022/02/10 16:33:38;;;;;;;10.20;4.18;;;7.40;99.90;;;;;;5114722;28;20059;-69
2022/02/10 16:36:06;;;;;;;8.25;3.97;;;7.40;99.90;;;;;;5114592;28;20590;-69
2022/02/10 16:38:35;;;;;;;9.73;3.55;;;7.40;99.90;;;;;;5114612;28;20495;-69
2022/02/10 16:41:02;;;;;;;7.90;3.85;;;7.30;99.90;;;;;;5114756;28;20101;-69
2022/02/10 16:43:29;;;;;;;10.25;4.20;;;7.30;99.90;;;;;;5114009;28;20146;-69
2022/02/10 16:45:56;;;;;;;10.30;4.18;;;7.30;99.90;;;;;;5114105;28;20131;-69
2022/02/10 16:48:23;;;;;;;8.35;3.47;;;7.20;99.90;;;;;;5114559;28;20052;-69
2022/02/10 16:50:50;;;;;;;8.27;3.67;;;7.30;99.90;;;;;;5114124;28;20131;-68
2022/02/10 16:53:21;;;;;;;10.68;3.97;;;7.30;99.90;;;;;;5114328;28;20090;-68
2022/02/10 16:55:57;;;;;;;9.32;3.97;;;7.20;99.90;;;;;;5114332;28;20491;-68
2022/02/10 16:58:30;;;;;;;10.60;4.53;;;7.20;99.90;;;;;;5114067;28;20051;-68
2022/02/10 17:01:28;;;;;;;8.63;3.88;;;7.20;99.90;;;;;;5114404;28;20056;-68
2022/02/10 17:04:30;;;;;;;8.57;3.70;;;7.20;99.90;;;;;;5114415;28;20052;-67
2022/02/10 17:16:12;;;;;;;8.05;3.80;;;7.00;99.90;;;;;;5114541;28;20058;-68
2022/02/10 17:18:27;;;;;;;10.82;4.20;;;7.00;99.90;;;;;;5114448;28;20051;-69
2022/02/10 17:21:14;;;;;;;10.57;4.40;;;7.00;99.90;;;;;;5114976;28;20051;-69
2022/02/10 17:26:39;;;;;;;8.48;3.95;;;6.80;99.90;;;;;;5114219;28;20046;-68
2022/02/10 17:29:14;;;;;;;8.50;3.95;;;6.80;99.90;;;;;;5114515;28;20051;-68
2022/02/10 17:31:54;;;;;;;8.52;4.07;;;6.80;99.90;;;;;;5114499;28;20404;-67
2022/02/10 17:34:39;;;;;;;11.57;4.13;;;6.70;99.90;;;;;;5114764;28;20083;-67
2022/02/10 17:37:26;;;;;;;8.88;3.55;;;6.80;99.90;;;;;;5114309;28;20097;-67
2022/02/10 17:53:45;;;;;;;11.25;5.05;;;6.50;99.90;;;;;;5105428;28;20537;-68
2022/02/10 17:56:12;;;;;;;8.55;4.50;;;6.40;99.90;;;;;;5112045;28;20048;-68
2022/02/10 17:58:39;;;;;;;12.35;4.90;;;6.30;99.90;;;;;;5113104;28;20047;-68
2022/02/10 18:01:08;;;;;;;11.63;5.40;;;6.20;99.90;;;;;;5112992;28;20134;-68
2022/02/10 18:03:35;;;;;;;11.18;4.57;;;6.20;99.90;;;;;;5112629;28;20130;-68
2022/02/10 18:06:20;;;;;;;12.50;5.35;;;6.20;99.90;;;;;;5112910;28;20103;-67
2022/02/10 18:08:58;;;;;;;8.85;4.90;;;6.20;99.90;;;;;;5113154;28;20105;-68
2022/02/10 18:14:12;;;;;;;13.35;5.78;;;6.20;99.90;;;;;;5112631;28;20047;-68
2022/02/10 18:16:45;;;;;;;10.90;5.18;;;6.10;99.90;;;;;;5112668;28;20059;-68
2022/02/10 18:19:18;;;;;;;10.85;4.80;;;6.10;99.90;;;;;;5112982;28;20059;-68
2022/02/10 18:24:47;;;;;;;11.93;5.55;;;6.10;99.90;;;;;;5112371;28;20050;-67
2022/02/10 18:27:26;;;;;;;11.50;5.47;;;5.90;99.90;;;;;;5112550;28;20055;-68
2022/02/10 18:30:14;;;;;;;11.88;6.22;;;6.00;99.90;;;;;;5112427;28;20504;-68
2022/02/10 19:09:00;;;;;;;10.02;4.80;;;6.10;99.90;;;;;;5112237;28;20051;-68
2022/02/10 19:11:27;;;;;;;12.77;5.18;;;6.10;99.90;;;;;;5112086;28;20056;-68
2022/02/10 19:13:56;;;;;;;11.23;4.70;;;6.00;99.90;;;;;;5111734;28;20073;-68
2022/02/10 19:16:23;;;;;;;13.57;5.47;;;6.10;99.90;;;;;;5111826;28;20055;-68
2022/02/10 19:18:50;;;;;;;8.57;4.70;;;6.00;99.90;;;;;;5112034;28;20203;-68
2022/02/10 19:21:18;;;;;;;12.30;4.85;;;6.00;99.90;;;;;;5111846;28;20050;-67
2022/02/10 19:23:45;;;;;;;9.73;5.10;;;6.00;99.90;;;;;;5111723;28;20090;-68
2022/02/10 19:26:13;;;;;;;15.75;6.35;;;6.00;99.90;;;;;;5111546;28;20047;-69
2022/02/10 19:28:40;;;;;;;13.43;6.07;;;5.90;99.90;;;;;;5111695;28;20047;-69
2022/02/10 19:31:08;;;;;;;12.38;6.10;;;5.90;99.90;;;;;;5111745;28;20083;-69
2022/02/10 19:33:35;;;;;;;12.52;6.25;;;5.90;99.90;;;;;;5111497;28;20553;-69
2022/02/10 19:36:03;;;;;;;10.55;5.20;;;5.80;99.90;;;;;;5111500;28;20052;-69
2022/02/10 19:38:31;;;;;;;12.90;6.28;;;5.80;99.90;;;;;;5111777;28;20082;-69
2022/02/10 19:40:58;;;;;;;12.65;5.57;;;5.80;99.90;;;;;;5111806;28;20449;-69
2022/02/10 19:43:26;;;;;;;11.55;4.88;;;5.80;99.90;;;;;;5112001;28;20499;-69
2022/02/10 19:45:53;;;;;;;16.23;6.00;;;5.80;99.90;;;;;;5111490;28;20533;-68
2022/02/10 19:48:22;;;;;;;12.27;5.30;;;5.70;99.90;;;;;;5111864;28;20054;-67
2022/02/10 19:50:51;;;;;;;10.30;5.30;;;5.70;99.90;;;;;;5111749;28;20507;-67
2022/02/10 19:53:18;;;;;;;9.98;4.25;;;5.70;99.90;;;;;;5111950;28;20047;-68
2022/02/10 19:55:49;;;;;;;11.18;5.00;;;5.70;99.90;;;;;;5112225;28;20146;-69
2022/02/10 19:58:21;;;;;;;12.40;5.28;;;5.70;99.90;;;;;;5112316;28;20419;-69
2022/02/10 20:00:49;;;;;;;11.18;4.88;;;5.60;99.90;;;;;;5112185;28;20135;-69
2022/02/10 20:03:16;;;;;;;9.80;4.93;;;5.70;99.90;;;;;;5112021;28;20487;-69
2022/02/10 20:05:45;;;;;;;11.00;5.05;;;5.70;99.90;;;;;;5111256;28;20097;-69
2022/02/10 20:08:14;;;;;;;9.98;5.00;;;5.70;99.90;;;;;;5111912;28;20055;-69
2022/02/10 20:10:42;;;;;;;10.45;5.03;;;5.70;99.90;;;;;;5111497;28;20112;-69
2022/02/10 20:13:15;;;;;;;10.23;5.10;;;5.60;99.90;;;;;;5111409;28;20464;-69
2022/02/10 20:15:43;;;;;;;10.48;5.10;;;5.60;99.90;;;;;;5111463;28;20051;-69
2022/02/10 20:18:12;;;;;;;13.90;5.32;;;5.60;99.90;;;;;;5111637;28;20142;-69
2022/02/10 20:20:41;;;;;;;12.15;5.07;;;5.60;99.90;;;;;;5115232;28;20055;-69
2022/02/10 20:23:08;;;;;;;12.00;5.25;;;5.60;99.90;;;;;;5115004;28;20491;-69
2022/02/10 20:25:36;;;;;;;11.23;5.15;;;5.60;99.90;;;;;;5115012;28;20455;-69
2022/02/10 20:28:03;;;;;;;11.85;5.68;;;5.60;99.90;;;;;;5115048;28;20048;-69
2022/02/10 20:30:32;;;;;;;14.50;5.75;;;5.60;99.90;;;;;;5115029;28;20043;-69
2022/02/10 20:32:59;;;;;;;11.98;5.60;;;5.60;99.90;;;;;;5114970;28;20051;-69
2022/02/10 20:35:26;;;;;;;13.88;6.57;;;5.60;99.90;;;;;;5114501;28;20467;-68
2022/02/10 20:37:59;;;;;;;15.18;6.22;;;5.60;99.90;;;;;;5115624;28;20063;-68
2022/02/10 20:40:26;;;;;;;12.55;5.85;;;5.60;99.90;;;;;;5114989;28;20047;-69
2022/02/10 20:42:57;;;;;;;11.52;5.57;;;5.60;99.90;;;;;;5115203;28;20069;-69
2022/02/10 20:45:24;;;;;;;13.40;5.70;;;5.60;99.90;;;;;;5114896;28;20078;-69
2022/02/10 20:47:52;;;;;;;13.02;6.03;;;5.60;99.90;;;;;;5114725;28;20087;-69
2022/02/10 20:50:19;;;;;;;15.40;6.38;;;5.60;99.90;;;;;;5114422;28;20513;-69
2022/02/10 20:52:46;;;;;;;13.50;6.10;;;5.60;99.90;;;;;;5114551;28;20079;-69
2022/02/10 20:55:13;;;;;;;14.57;5.30;;;5.60;99.90;;;;;;5114112;28;20130;-69
2022/02/10 20:57:40;;;;;;;12.43;6.30;;;5.60;99.90;;;;;;5114454;28;20130;-69
2022/02/10 21:00:09;;;;;;;13.27;5.45;;;5.60;99.90;;;;;;5114268;28;20130;-69
2022/02/10 21:02:41;;;;;;;16.40;6.80;;;5.60;99.90;;;;;;5114158;28;20083;-69
2022/02/10 21:05:23;;;;;;;15.30;6.28;;;5.60;99.90;;;;;;5113903;28;20581;-69
2022/02/10 21:07:59;;;;;;;16.02;6.63;;;5.50;99.90;;;;;;5114126;28;20048;-69
2022/02/10 21:10:27;;;;;;;14.83;5.80;;;5.60;99.90;;;;;;5114207;28;20143;-68
2022/02/10 21:12:54;;;;;;;14.32;7.05;;;5.60;99.90;;;;;;5114199;28;20541;-69
2022/02/10 21:15:27;;;;;;;17.67;7.88;;;5.60;99.90;;;;;;5113608;28;20457;-69
2022/02/10 21:17:59;;;;;;;13.27;6.35;;;5.60;99.90;;;;;;5114191;28;20087;-69
2022/02/10 21:20:30;;;;;;;14.18;6.72;;;5.60;99.90;;;;;;5114139;28;20055;-69
2022/02/10 21:23:05;;;;;;;14.43;6.50;;;5.60;99.90;;;;;;5113943;28;20513;-69
2022/02/10 21:25:36;;;;;;;15.05;6.53;;;5.70;99.90;;;;;;5113576;28;20066;-69
2022/02/10 21:28:08;;;;;;;16.48;7.57;;;5.60;99.90;;;;;;5113654;28;20525;-69
2022/02/10 21:30:35;;;;;;;14.15;7.00;;;5.70;99.90;;;;;;5113710;28;20053;-69
2022/02/10 21:33:04;;;;;;;16.90;7.78;;;5.60;99.90;;;;;;5113563;28;20043;-69
2022/02/10 21:35:46;;;;;;;15.13;6.70;;;5.60;99.90;;;;;;5113446;28;20104;-69
2022/02/10 21:38:17;;;;;;;14.73;7.35;;;5.60;99.90;;;;;;5113432;28;20055;-69
2022/02/10 21:41:20;;;;;;;14.10;7.45;;;5.60;99.90;;;;;;5113436;28;20392;-69
2022/02/10 21:55:29;;;;;;;14.90;6.97;;;5.70;99.90;;;;;;5112879;28;20624;-69
2022/02/10 22:03:47;;;;;;;13.43;6.47;;;5.70;99.90;;;;;;5112177;28;20043;-68
2022/02/10 22:06:37;;;;;;;14.38;6.85;;;5.60;99.90;;;;;;5112702;28;20063;-69
2022/02/10 22:09:24;;;;;;;15.10;7.30;;;5.60;99.90;;;;;;5113178;28;20051;-69
2022/02/10 22:12:09;;;;;;;15.95;7.15;;;5.60;99.90;;;;;;5113090;28;20081;-69
2022/02/10 22:20:21;;;;;;;17.52;7.75;;;5.60;99.90;;;;;;5049850;28;20041;-69
2022/02/10 22:23:02;;;;;;;16.00;7.80;;;5.50;99.90;;;;;;5099177;28;20047;-69
2022/02/10 22:25:31;;;;;;;14.88;7.38;;;5.50;99.90;;;;;;5112270;28;20539;-69
2022/02/10 22:28:07;;;;;;;15.95;7.38;;;5.50;99.90;;;;;;5112548;28;20082;-69
2022/02/10 22:30:45;;;;;;;15.27;7.57;;;5.50;99.90;;;;;;5112603;28;20058;-69
2022/02/10 22:33:23;;;;;;;15.60;7.63;;;5.50;99.90;;;;;;5112452;28;20714;-69
2022/02/10 22:35:50;;;;;;;18.02;7.78;;;5.40;99.90;;;;;;5112396;28;20051;-69
2022/02/10 22:38:21;;;;;;;15.82;7.20;;;5.40;99.90;;;;;;5112428;28;20529;-69
2022/02/10 22:41:01;;;;;;;13.18;7.13;;;5.40;99.90;;;;;;5112564;28;20058;-69
2022/02/10 22:43:28;;;;;;;16.77;7.50;;;5.40;99.90;;;;;;5112030;28;20513;-69
2022/02/10 22:45:55;;;;;;;15.13;6.88;;;5.40;99.90;;;;;;5111956;28;20134;-69
2022/02/10 22:48:22;;;;;;;14.55;7.25;;;5.40;99.90;;;;;;5112074;28;20134;-69
2022/02/10 22:50:49;;;;;;;15.77;7.47;;;5.40;99.90;;;;;;5112229;28;20130;-69
2022/02/10 22:53:16;;;;;;;16.58;7.70;;;5.40;99.90;;;;;;5111990;28;20054;-69
2022/02/10 22:55:43;;;;;;;17.05;7.88;;;5.40;99.90;;;;;;5111756;28;20590;-69
2022/02/10 22:58:12;;;;;;;16.27;7.85;;;5.40;99.90;;;;;;5111873;28;20155;-69
2022/02/10 23:00:46;;;;;;;16.20;7.50;;;5.50;99.90;;;;;;5112007;28;20506;-69
2022/02/10 23:03:14;;;;;;;16.17;7.90;;;5.50;99.90;;;;;;5112141;28;20055;-69
2022/02/10 23:05:41;;;;;;;18.83;8.23;;;5.50;99.90;;;;;;5111689;28;20058;-69
2022/02/10 23:08:09;;;;;;;19.17;8.15;;;5.40;99.90;;;;;;5111983;28;20460;-69
2022/02/10 23:10:43;;;;;;;16.98;8.02;;;5.40;99.90;;;;;;5112194;28;20059;-69
2022/02/10 23:13:12;;;;;;;17.90;8.40;;;5.30;99.90;;;;;;5112316;28;20117;-69
2022/02/10 23:15:40;;;;;;;15.93;7.60;;;5.30;99.90;;;;;;5111564;28;20086;-68
2022/02/10 23:18:09;;;;;;;15.18;7.38;;;5.30;99.90;;;;;;5112058;28;20577;-68
2022/02/10 23:20:37;;;;;;;21.02;8.15;;;5.30;99.90;;;;;;5111908;28;20047;-68
2022/02/10 23:23:06;;;;;;;15.77;7.45;;;5.30;99.90;;;;;;5111908;28;20470;-68
2022/02/10 23:25:33;;;;;;;15.98;7.85;;;5.30;99.90;;;;;;5111566;28;20056;-67
2022/02/10 23:28:02;;;;;;;15.50;7.35;;;5.30;99.90;;;;;;5111964;28;20060;-69
2022/02/10 23:30:30;;;;;;;14.88;7.68;;;5.30;99.90;;;;;;5111731;28;20135;-68
2022/02/10 23:33:03;;;;;;;17.05;7.43;;;5.30;99.90;;;;;;5111674;28;20047;-67
2022/02/10 23:36:21;;;;;;;16.05;7.32;;;5.30;99.90;;;;;;5111335;28;20054;-68
2022/02/10 23:38:37;;;;;;;14.10;7.03;;;5.30;99.90;;;;;;5111447;28;20044;-68
2022/02/10 23:43:49;;;;;;;14.07;6.95;;;5.30;99.90;;;;;;5103986;28;20043;-68
2022/02/10 23:46:18;;;;;;;15.80;7.07;;;5.30;99.90;;;;;;5111435;28;20055;-68
2022/02/10 23:48:45;;;;;;;17.55;7.57;;;5.30;99.90;;;;;;5111835;28;20055;-68
2022/02/10 23:51:12;;;;;;;16.92;7.25;;;5.30;99.90;;;;;;5111576;28;20056;-68
2022/02/10 23:53:39;;;;;;;16.55;7.30;;;5.30;99.90;;;;;;5112116;28;20187;-68
2022/02/10 23:56:11;;;;;;;14.98;7.00;;;5.30;99.90;;;;;;5115276;28;20491;-69
2022/02/10 23:58:48;;;;;;;15.23;6.65;;;5.30;99.90;;;;;;5115789;28;20118;-68
